createdAt,value
2023-03-06T00:00:59.386Z,97964.53
2023-03-06T00:03:27.959Z,97964.13
2023-03-06T00:05:57.266Z,97965.50
2023-03-06T00:08:25.469Z,97966.03
2023-03-06T00:10:56.251Z,97967.88
2023-03-06T00:13:23.778Z,97959.66
2023-03-06T00:15:50.507Z,97962.31
2023-03-06T00:18:17.198Z,97959.66
2023-03-06T00:20:45.140Z,97961.53
2023-03-06T00:23:12.410Z,97962.41
2023-03-06T00:25:43.934Z,97960.63
2023-03-06T00:28:12.310Z,97961.94
2023-03-06T00:30:39.233Z,97952.22
2023-03-06T00:33:05.889Z,97947.13
2023-03-06T00:35:32.607Z,97943.28
2023-03-06T00:37:59.747Z,97942.16
2023-03-06T00:40:26.833Z,97938.78
2023-03-06T00:42:53.502Z,97941.38
2023-03-06T00:45:20.294Z,97942.16
2023-03-06T00:47:46.929Z,97935.03
2023-03-06T00:50:13.633Z,97934.69
2023-03-06T00:52:41.807Z,97927.78
2023-03-06T00:55:10.261Z,97923.22
2023-03-06T00:57:37.052Z,97924.13
2023-03-06T01:00:05.519Z,97918.16
2023-03-06T01:02:32.572Z,97907.72
2023-03-06T01:04:59.424Z,97912.56
2023-03-06T01:07:27.650Z,97899.50
2023-03-06T01:09:54.366Z,97892.59
2023-03-06T01:12:23.411Z,97893.69
2023-03-06T01:14:50.319Z,97892.41
2023-03-06T01:17:17.301Z,97890.34
2023-03-06T01:19:43.922Z,97882.72
2023-03-06T01:22:10.638Z,97881.97
2023-03-06T01:24:37.298Z,97876.38
2023-03-06T01:27:03.964Z,97872.06
2023-03-06T01:29:30.677Z,97876.94
2023-03-06T01:31:57.325Z,97870.34
2023-03-06T01:34:23.992Z,97872.22
2023-03-06T01:36:50.597Z,97865.50
2023-03-06T01:39:17.262Z,97856.94
2023-03-06T01:41:43.892Z,97861.03
2023-03-06T01:44:13.500Z,97855.81
2023-03-06T01:46:47.054Z,97861.75
2023-03-06T01:49:21.200Z,97855.63
2023-03-06T01:51:53.202Z,97857.09
2023-03-06T01:54:50.443Z,97846.47
2023-03-06T01:57:30.877Z,97851.69
2023-03-06T02:00:17.009Z,97844.00
2023-03-06T02:03:09.212Z,97845.66
2023-03-06T02:05:40.921Z,97837.63
2023-03-06T02:08:09.685Z,97829.25
2023-03-06T02:10:36.353Z,97833.91
2023-03-06T02:13:03.192Z,97827.78
2023-03-06T02:15:30.817Z,97819.31
2023-03-06T02:17:57.471Z,97821.00
2023-03-06T02:20:53.036Z,97814.09
2023-03-06T02:23:50.465Z,97803.78
2023-03-06T02:26:23.767Z,97810.38
2023-03-06T02:28:50.428Z,97810.50
2023-03-06T02:31:30.366Z,97813.16
2023-03-06T02:34:13.945Z,97798.19
2023-03-06T02:36:46.458Z,97798.00
2023-03-06T02:39:14.554Z,97797.84
2023-03-06T02:41:41.560Z,97799.31
2023-03-06T02:44:08.323Z,97795.59
2023-03-06T02:46:34.997Z,97795.63
2023-03-06T02:49:01.844Z,97782.34
2023-03-06T02:51:28.507Z,97785.16
2023-03-06T02:53:58.026Z,97782.53
2023-03-06T02:56:24.649Z,97780.28
2023-03-06T02:58:51.998Z,97784.00
2023-03-06T03:01:18.794Z,97789.25
2023-03-06T03:03:45.454Z,97783.47
2023-03-06T03:06:12.032Z,97783.84
2023-03-06T03:08:41.372Z,97784.75
2023-03-06T03:11:09.179Z,97783.28
2023-03-06T03:13:36.334Z,97784.97
2023-03-06T03:16:13.794Z,97779.19
2023-03-06T03:18:41.262Z,97776.34
2023-03-06T03:21:11.485Z,97778.63
2023-03-06T03:23:38.214Z,97766.81
2023-03-06T03:26:10.470Z,97769.78
2023-03-06T03:28:37.343Z,97771.66
2023-03-06T03:31:09.665Z,97767.34
2023-03-06T03:33:36.867Z,97767.75
2023-03-06T03:36:06.792Z,97768.69
2023-03-06T03:38:34.197Z,97770.91
2023-03-06T03:41:02.079Z,97771.66
2023-03-06T03:43:28.713Z,97766.03
2023-03-06T03:45:55.317Z,97756.28
2023-03-06T03:48:22.322Z,97757.63
2023-03-06T03:50:48.925Z,97763.78
2023-03-06T03:53:15.519Z,97759.09
2023-03-06T03:55:42.208Z,97756.34
2023-03-06T03:58:08.887Z,97755.56
2023-03-06T04:00:45.592Z,97750.94
2023-03-06T04:03:12.184Z,97752.56
2023-03-06T04:05:38.775Z,97741.19
2023-03-06T04:08:05.633Z,97737.22
2023-03-06T04:10:34.177Z,97747.69
2023-03-06T04:13:00.963Z,97743.59
2023-03-06T04:15:31.576Z,97738.75
2023-03-06T04:17:58.423Z,97734.66
2023-03-06T04:20:25.931Z,97738.75
2023-03-06T04:22:52.513Z,97736.88
2023-03-06T04:25:20.314Z,97729.75
2023-03-06T04:27:46.931Z,97724.22
2023-03-06T04:30:13.867Z,97723.06
2023-03-06T04:32:40.504Z,97723.47
2023-03-06T04:35:07.499Z,97725.66
2023-03-06T04:37:34.140Z,97719.50
2023-03-06T04:40:00.821Z,97721.59
2023-03-06T04:42:27.661Z,97720.47
2023-03-06T04:44:54.298Z,97722.75
2023-03-06T04:47:20.945Z,97722.50
2023-03-06T04:49:47.558Z,97723.47
2023-03-06T04:52:14.144Z,97715.59
2023-03-06T04:54:40.791Z,97719.34
2023-03-06T04:57:07.920Z,97720.84
2023-03-06T04:59:34.574Z,97720.47
2023-03-06T05:02:01.247Z,97714.06
2023-03-06T05:04:27.876Z,97718.25
2023-03-06T05:06:54.508Z,97708.88
2023-03-06T05:09:21.115Z,97708.88
2023-03-06T05:11:47.693Z,97712.97
2023-03-06T05:14:14.269Z,97708.16
2023-03-06T05:16:40.964Z,97717.13
2023-03-06T05:19:07.564Z,97702.56
2023-03-06T05:21:34.201Z,97709.66
2023-03-06T05:24:00.937Z,97700.88
2023-03-06T05:26:27.571Z,97702.75
2023-03-06T05:28:55.182Z,97698.59
2023-03-06T05:31:21.819Z,97699.94
2023-03-06T05:33:48.444Z,97690.25
2023-03-06T05:36:15.045Z,97700.34
2023-03-06T05:38:41.643Z,97694.84
2023-03-06T05:41:15.156Z,97699.91
2023-03-06T05:43:41.969Z,97696.53
2023-03-06T05:46:09.085Z,97692.06
2023-03-06T05:48:40.096Z,97693.03
2023-03-06T05:51:06.840Z,97685.69
2023-03-06T05:53:37.550Z,97693.19
2023-03-06T05:56:11.522Z,97689.44
2023-03-06T05:58:38.476Z,97686.84
2023-03-06T06:01:15.208Z,97689.44
2023-03-06T06:03:42.173Z,97689.63
2023-03-06T06:06:19.013Z,97688.91
2023-03-06T06:08:45.640Z,97684.78
2023-03-06T06:11:13.990Z,97683.25
2023-03-06T06:13:40.970Z,97681.91
2023-03-06T06:16:16.261Z,97680.81
2023-03-06T06:18:45.699Z,97677.81
2023-03-06T06:21:14.629Z,97684.22
2023-03-06T06:23:42.010Z,97684.06
2023-03-06T06:26:09.508Z,97677.88
2023-03-06T06:28:36.863Z,97681.56
2023-03-06T06:31:13.585Z,97682.97
2023-03-06T06:33:41.231Z,97678.25
2023-03-06T06:36:21.452Z,97681.63
2023-03-06T06:38:48.875Z,97676.38
2023-03-06T06:44:08.914Z,97681.06
2023-03-06T06:49:22.788Z,97676.03
2023-03-06T06:51:51.939Z,97676.38
2023-03-06T06:54:19.772Z,97682.03
2023-03-06T06:56:46.383Z,97680.69
2023-03-06T06:59:17.510Z,97679.78
2023-03-06T07:01:44.559Z,97674.53
2023-03-06T07:04:14.793Z,97687.78
2023-03-06T07:06:42.991Z,97686.47
2023-03-06T07:09:13.628Z,97687.03
2023-03-06T07:11:40.912Z,97680.66
2023-03-06T07:14:07.932Z,97698.09
2023-03-06T07:16:34.826Z,97695.84
2023-03-06T07:19:01.501Z,97700.50
2023-03-06T07:21:28.193Z,97702.56
2023-03-06T07:23:57.122Z,97694.66
2023-03-06T07:26:25.605Z,97703.69
2023-03-06T07:28:53.565Z,97694.66
2023-03-06T07:31:26.841Z,97705.03
2023-03-06T07:33:54.726Z,97702.13
2023-03-06T07:36:23.157Z,97706.78
2023-03-06T07:38:50.084Z,97704.81
2023-03-06T07:41:20.444Z,97700.97
2023-03-06T07:43:49.826Z,97705.88
2023-03-06T07:46:16.577Z,97711.50
2023-03-06T07:48:47.616Z,97710.69
2023-03-06T07:51:18.749Z,97709.53
2023-03-06T07:53:46.197Z,97707.34
2023-03-06T07:56:13.624Z,97711.47
2023-03-06T07:58:44.461Z,97712.78
2023-03-06T08:01:19.743Z,97709.22
2023-03-06T08:03:47.544Z,97710.75
2023-03-06T08:06:17.069Z,97706.84
2023-03-06T08:08:45.718Z,97705.78
2023-03-06T08:11:15.159Z,97713.16
2023-03-06T08:13:42.253Z,97712.16
2023-03-06T08:16:10.528Z,97710.91
2023-03-06T08:18:39.559Z,97711.47
2023-03-06T08:21:11.452Z,97718.75
2023-03-06T08:23:38.706Z,97718.25
2023-03-06T08:26:10.564Z,97723.13
2023-03-06T08:28:37.450Z,97716.56
2023-03-06T08:31:14.354Z,97709.28
2023-03-06T08:33:43.458Z,97706.97
2023-03-06T08:36:10.296Z,97721.81
2023-03-06T08:38:36.915Z,97714.25
2023-03-06T08:41:04.063Z,97724.16
2023-03-06T08:43:30.786Z,97712.56
2023-03-06T08:45:58.873Z,97714.75
2023-03-06T08:48:25.798Z,97718.28
2023-03-06T08:50:54.248Z,97720.09
2023-03-06T08:53:22.736Z,97716.59
2023-03-06T08:55:54.678Z,97727.91
2023-03-06T08:58:21.339Z,97723.53
2023-03-06T09:00:48.847Z,97733.97
2023-03-06T09:03:15.551Z,97728.91
2023-03-06T09:05:42.256Z,97724.97
2023-03-06T09:08:08.946Z,97728.63
2023-03-06T09:10:35.608Z,97724.56
2023-03-06T09:13:02.360Z,97726.38
2023-03-06T09:15:29.197Z,97714.63
2023-03-06T09:17:55.869Z,97721.59
2023-03-06T09:20:22.650Z,97725.38
2023-03-06T09:22:49.282Z,97729.59
2023-03-06T09:25:20.368Z,97731.72
2023-03-06T09:27:55.436Z,97733.38
2023-03-06T09:30:28.663Z,97731.28
2023-03-06T09:32:55.324Z,97749.75
2023-03-06T09:35:21.938Z,97739.22
2023-03-06T09:37:48.556Z,97742.78
2023-03-06T09:40:50.788Z,97745.25
2023-03-06T09:43:35.445Z,97742.91
2023-03-06T09:46:16.526Z,97742.56
2023-03-06T09:49:31.435Z,97746.63
2023-03-06T09:52:38.407Z,97738.28
2023-03-06T09:55:22.682Z,97743.03
2023-03-06T09:58:07.542Z,97741.59
2023-03-06T10:00:41.710Z,97743.44
2023-03-06T10:03:52.470Z,97742.97
2023-03-06T10:06:34.560Z,97740.38
2023-03-06T10:09:17.493Z,97732.91
2023-03-06T10:11:52.945Z,97735.38
2023-03-06T10:14:41.952Z,97739.31
2023-03-06T10:17:18.940Z,97738.16
2023-03-06T10:19:47.580Z,97736.31
2023-03-06T10:22:31.364Z,97735.28
2023-03-06T10:25:27.784Z,97731.81
2023-03-06T10:28:17.352Z,97738.22
2023-03-06T10:31:10.323Z,97744.59
2023-03-06T10:33:56.318Z,97733.75
2023-03-06T10:36:29.544Z,97726.50
2023-03-06T10:39:12.494Z,97727.16
2023-03-06T10:41:39.091Z,97733.59
2023-03-06T10:44:05.683Z,97734.63
2023-03-06T10:46:42.185Z,97737.03
2023-03-06T10:49:32.557Z,97731.09
2023-03-06T10:52:14.471Z,97739.78
2023-03-06T10:54:43.866Z,97732.16
2023-03-06T10:57:31.761Z,97738.59
2023-03-06T11:00:24.114Z,97744.84
2023-03-06T11:03:13.549Z,97742.13
2023-03-06T11:05:40.454Z,97731.09
2023-03-06T11:08:22.753Z,97733.88
2023-03-06T11:11:02.038Z,97748.41
2023-03-06T11:13:36.195Z,97742.25
2023-03-06T11:16:10.490Z,97747.41
2023-03-06T11:18:42.674Z,97740.94
2023-03-06T11:21:31.404Z,97739.97
2023-03-06T11:24:06.010Z,97741.50
2023-03-06T11:26:53.246Z,97741.78
2023-03-06T11:29:38.867Z,97733.31
2023-03-06T11:32:29.866Z,97732.69
2023-03-06T11:35:22.489Z,97729.44
2023-03-06T11:38:04.852Z,97740.81
2023-03-06T11:40:44.892Z,97733.81
2023-03-06T11:43:49.904Z,97721.09
2023-03-06T11:46:29.165Z,97729.13
2023-03-06T11:49:24.622Z,97709.31
2023-03-06T11:52:06.931Z,97713.38
2023-03-06T11:54:33.674Z,97706.22
2023-03-06T11:57:07.976Z,97708.97
2023-03-06T12:00:04.279Z,97708.72
2023-03-06T12:03:20.186Z,97710.94
2023-03-06T12:05:55.821Z,97702.56
2023-03-06T12:08:48.021Z,97702.47
2023-03-06T12:11:29.697Z,97699.63
2023-03-06T12:14:22.549Z,97694.59
2023-03-06T12:17:02.562Z,97702.06
2023-03-06T12:20:11.719Z,97710.97
2023-03-06T12:22:57.722Z,97700.31
2023-03-06T12:25:54.392Z,97703.13
2023-03-06T12:28:42.373Z,97700.34
2023-03-06T12:31:42.692Z,97685.09
2023-03-06T12:34:42.917Z,97686.44
2023-03-06T12:37:35.236Z,97689.22
2023-03-06T12:40:30.640Z,97672.56
2023-03-06T12:43:51.204Z,97669.41
2023-03-06T12:46:22.871Z,97655.66
2023-03-06T12:49:32.476Z,97656.03
2023-03-06T12:52:01.151Z,97647.56
2023-03-06T12:54:31.393Z,97649.97
2023-03-06T12:57:00.275Z,97657.03
2023-03-06T12:59:48.681Z,97648.81
2023-03-06T13:02:51.542Z,97651.16
2023-03-06T13:05:50.372Z,97645.97
2023-03-06T13:08:52.581Z,97641.94
2023-03-06T13:11:38.977Z,97640.50
2023-03-06T13:14:37.563Z,97644.22
2023-03-06T13:17:21.182Z,97655.22
2023-03-06T13:19:48.669Z,97649.88
2023-03-06T13:22:28.026Z,97635.31
2023-03-06T13:25:16.533Z,97635.59
2023-03-06T13:27:53.097Z,97632.84
2023-03-06T13:30:43.052Z,97640.34
2023-03-06T13:33:29.770Z,97637.69
2023-03-06T13:35:58.282Z,97641.41
2023-03-06T13:38:59.887Z,97631.53
2023-03-06T13:41:37.513Z,97628.66
2023-03-06T13:44:39.763Z,97626.25
2023-03-06T13:47:25.261Z,97618.31
2023-03-06T13:49:52.004Z,97614.47
2023-03-06T13:52:26.162Z,97613.56
2023-03-06T13:54:55.432Z,97611.06
2023-03-06T13:57:51.823Z,97619.84
2023-03-06T14:00:46.338Z,97610.13
2023-03-06T14:04:01.023Z,97607.03
2023-03-06T14:06:41.670Z,97607.44
2023-03-06T14:09:30.509Z,97600.19
2023-03-06T14:12:06.641Z,97603.72
2023-03-06T14:14:48.898Z,97602.22
2023-03-06T14:17:32.281Z,97593.16
2023-03-06T14:20:13.882Z,97591.84
2023-03-06T14:22:40.746Z,97587.25
2023-03-06T14:25:28.340Z,97577.91
2023-03-06T14:27:58.288Z,97577.88
2023-03-06T14:30:32.191Z,97581.84
2023-03-06T14:32:59.191Z,97581.84
2023-03-06T14:35:30.406Z,97582.84
2023-03-06T14:38:02.052Z,97578.25
2023-03-06T14:40:45.006Z,97571.47
2023-03-06T14:43:24.325Z,97574.44
2023-03-06T14:46:00.486Z,97578.53
2023-03-06T14:48:39.523Z,97578.22
2023-03-06T14:51:14.225Z,97579.75
2023-03-06T14:53:41.215Z,97578.13
2023-03-06T14:56:08.012Z,97570.25
2023-03-06T14:58:44.402Z,97574.59
2023-03-06T15:01:13.376Z,97578.13
2023-03-06T15:03:49.526Z,97579.09
2023-03-06T15:06:38.265Z,97571.28
2023-03-06T15:09:16.905Z,97573.03
2023-03-06T15:12:04.543Z,97577.59
2023-03-06T15:14:41.790Z,97584.31
2023-03-06T15:17:17.285Z,97585.22
2023-03-06T15:19:47.005Z,97583.16
2023-03-06T15:22:26.900Z,97585.25
2023-03-06T15:25:03.737Z,97587.03
2023-03-06T15:27:30.643Z,97589.78
2023-03-06T15:30:43.232Z,97586.03
2023-03-06T15:33:17.894Z,97583.94
2023-03-06T15:36:03.624Z,97589.34
2023-03-06T15:38:43.103Z,97593.47
2023-03-06T15:41:35.583Z,97591.78
2023-03-06T15:44:11.050Z,97586.47
2023-03-06T15:46:37.725Z,97584.84
2023-03-06T15:49:04.763Z,97590.03
2023-03-06T15:51:33.637Z,97592.31
2023-03-06T15:54:11.249Z,97591.69
2023-03-06T15:56:42.195Z,97597.75
2023-03-06T15:59:21.588Z,97608.44
2023-03-06T16:01:49.153Z,97595.16
2023-03-06T16:04:16.936Z,97594.34
2023-03-06T16:06:45.680Z,97597.47
2023-03-06T16:09:13.664Z,97588.41
2023-03-06T16:11:47.124Z,97591.94
2023-03-06T16:14:21.167Z,97602.38
2023-03-06T16:16:48.496Z,97595.91
2023-03-06T16:19:27.897Z,97598.66
2023-03-06T16:21:56.465Z,97586.91
2023-03-06T16:24:23.421Z,97596.13
2023-03-06T16:26:52.410Z,97590.66
2023-03-06T16:29:22.861Z,97588.03
2023-03-06T16:31:49.868Z,97598.25
2023-03-06T16:34:16.956Z,97596.75
2023-03-06T16:36:43.555Z,97595.66
2023-03-06T16:39:18.592Z,97593.56
2023-03-06T16:41:49.281Z,97595.06
2023-03-06T16:44:16.249Z,97594.81
2023-03-06T16:46:49.064Z,97590.50
2023-03-06T16:49:24.098Z,97585.28
2023-03-06T16:51:51.960Z,97587.38
2023-03-06T16:54:19.689Z,97595.72
2023-03-06T16:56:46.342Z,97593.44
2023-03-06T16:59:13.301Z,97581.47
2023-03-06T17:01:42.804Z,97591.13
2023-03-06T17:04:09.778Z,97584.50
2023-03-06T17:06:37.040Z,97587.59
2023-03-06T17:09:07.854Z,97591.47
2023-03-06T17:11:38.517Z,97580.25
2023-03-06T17:14:06.692Z,97584.69
2023-03-06T17:16:33.331Z,97586.22
2023-03-06T17:19:01.904Z,97580.34
2023-03-06T17:21:30.067Z,97591.53
2023-03-06T17:23:57.140Z,97585.81
2023-03-06T17:26:23.891Z,97578.16
2023-03-06T17:28:50.497Z,97584.13
2023-03-06T17:31:20.695Z,97586.09
2023-03-06T17:33:48.002Z,97580.13
2023-03-06T17:36:16.146Z,97586.84
2023-03-06T17:38:43.364Z,97587.97
2023-03-06T17:41:12.971Z,97588.97
2023-03-06T17:43:40.463Z,97591.38
2023-03-06T17:46:10.809Z,97592.44
2023-03-06T17:48:37.886Z,97593.84
2023-03-06T17:51:05.448Z,97590.06
2023-03-06T17:53:32.176Z,97596.31
2023-03-06T17:55:58.881Z,97591.94
2023-03-06T17:58:26.872Z,97591.09
2023-03-06T18:00:53.822Z,97593.00
2023-03-06T18:03:20.597Z,97586.16
2023-03-06T18:05:47.295Z,97591.03
2023-03-06T18:08:14.051Z,97588.88
2023-03-06T18:10:42.025Z,97592.94
2023-03-06T18:13:10.020Z,97594.59
2023-03-06T18:15:40.660Z,97589.31
2023-03-06T18:18:09.293Z,97586.19
2023-03-06T18:20:41.450Z,97585.25
2023-03-06T18:23:08.534Z,97586.44
2023-03-06T18:25:38.710Z,97584.75
2023-03-06T18:28:05.953Z,97580.94
2023-03-06T18:30:36.572Z,97580.72
2023-03-06T18:33:03.572Z,97575.75
2023-03-06T18:35:34.282Z,97575.72
2023-03-06T18:38:01.338Z,97576.50
2023-03-06T18:40:28.110Z,97574.44
2023-03-06T18:42:55.119Z,97573.69
2023-03-06T18:45:21.757Z,97580.75
2023-03-06T18:47:48.435Z,97573.06
2023-03-06T18:50:17.350Z,97568.44
2023-03-06T18:52:47.776Z,97571.41
2023-03-06T18:55:14.416Z,97566.94
2023-03-06T18:57:41.270Z,97562.97
2023-03-06T19:00:09.393Z,97564.50
2023-03-06T19:02:35.973Z,97563.22
2023-03-06T19:05:03.017Z,97561.31
2023-03-06T19:07:29.684Z,97560.00
2023-03-06T19:09:56.268Z,97562.69
2023-03-06T19:12:23.361Z,97558.50
2023-03-06T19:14:50.196Z,97569.59
2023-03-06T19:17:16.767Z,97563.06
2023-03-06T19:19:43.444Z,97567.91
2023-03-06T19:22:10.034Z,97565.13
2023-03-06T19:24:36.645Z,97556.75
2023-03-06T19:27:03.241Z,97561.00
2023-03-06T19:29:29.940Z,97555.25
2023-03-06T19:31:57.320Z,97558.38
2023-03-06T19:34:24.101Z,97566.09
2023-03-06T19:36:51.468Z,97561.59
2023-03-06T19:39:18.099Z,97563.06
2023-03-06T19:41:47.442Z,97562.06
2023-03-06T19:44:16.017Z,97554.03
2023-03-06T19:46:43.424Z,97557.09
2023-03-06T19:49:16.683Z,97557.31
2023-03-06T19:51:43.862Z,97548.38
2023-03-06T19:54:12.815Z,97546.78
2023-03-06T19:56:39.941Z,97551.41
2023-03-06T19:59:06.594Z,97538.84
2023-03-06T20:01:34.096Z,97542.53
2023-03-06T20:04:01.158Z,97548.88
2023-03-06T20:06:33.541Z,97546.94
2023-03-06T20:09:02.349Z,97537.16
2023-03-06T20:11:32.387Z,97533.25
2023-03-06T20:14:09.032Z,97538.09
2023-03-06T20:16:35.747Z,97531.75
2023-03-06T20:19:02.584Z,97532.69
2023-03-06T20:21:32.851Z,97531.38
2023-03-06T20:23:59.774Z,97539.03
2023-03-06T20:26:28.761Z,97536.06
2023-03-06T20:28:56.068Z,97539.78
2023-03-06T20:31:27.086Z,97533.25
2023-03-06T20:33:56.314Z,97537.28
2023-03-06T20:36:30.445Z,97535.19
2023-03-06T20:39:01.288Z,97539.22
2023-03-06T20:41:32.107Z,97536.22
2023-03-06T20:44:04.034Z,97516.81
2023-03-06T20:46:32.886Z,97523.56
2023-03-06T20:49:08.171Z,97526.22
2023-03-06T20:51:38.919Z,97521.34
2023-03-06T20:54:08.391Z,97520.22
2023-03-06T20:56:39.219Z,97518.59
2023-03-06T20:59:11.827Z,97515.56
2023-03-06T21:01:42.071Z,97514.63
2023-03-06T21:04:11.080Z,97515.19
2023-03-06T21:06:38.204Z,97513.91
2023-03-06T21:09:06.641Z,97516.00
2023-03-06T21:11:35.145Z,97510.16
2023-03-06T21:14:01.941Z,97506.34
2023-03-06T21:16:30.855Z,97505.81
2023-03-06T21:18:59.579Z,97501.25
2023-03-06T21:21:30.224Z,97499.75
2023-03-06T21:23:57.496Z,97508.38
2023-03-06T21:26:27.420Z,97501.66
2023-03-06T21:28:56.806Z,97503.91
2023-03-06T21:31:24.716Z,97497.72
2023-03-06T21:33:51.630Z,97502.78
2023-03-06T21:36:21.571Z,97500.31
2023-03-06T21:38:51.595Z,97496.75
2023-03-06T21:41:27.281Z,97490.88
2023-03-06T21:44:03.307Z,97488.59
2023-03-06T21:46:30.514Z,97482.59
2023-03-06T21:48:57.912Z,97471.63
2023-03-06T21:51:26.471Z,97477.06
2023-03-06T21:53:54.557Z,97467.88
2023-03-06T21:56:24.859Z,97467.75
2023-03-06T21:58:51.624Z,97467.00
2023-03-06T22:01:26.485Z,97464.00
2023-03-06T22:03:59.753Z,97465.31
2023-03-06T22:06:28.708Z,97468.50
2023-03-06T22:08:56.779Z,97463.25
2023-03-06T22:11:24.727Z,97460.66
2023-03-06T22:13:53.219Z,97455.78
2023-03-06T22:16:20.714Z,97453.19
2023-03-06T22:18:50.431Z,97451.66
2023-03-06T22:21:20.322Z,97450.38
2023-03-06T22:23:51.847Z,97448.53
2023-03-06T22:26:18.889Z,97440.88
2023-03-06T22:28:45.850Z,97441.25
2023-03-06T22:31:19.417Z,97441.09
2023-03-06T22:33:46.327Z,97442.00
2023-03-06T22:36:15.832Z,97440.50
2023-03-06T22:38:45.302Z,97439.78
2023-03-06T22:41:14.684Z,97436.78
2023-03-06T22:43:42.280Z,97432.47
2023-03-06T22:46:15.930Z,97426.34
2023-03-06T22:48:43.446Z,97421.88
2023-03-06T22:51:16.657Z,97425.59
2023-03-06T22:53:43.868Z,97422.22
2023-03-06T22:56:14.173Z,97423.75
2023-03-06T22:58:41.172Z,97408.81
2023-03-06T23:01:10.329Z,97418.72
2023-03-06T23:03:39.873Z,97414.41
2023-03-06T23:06:18.828Z,97416.44
2023-03-06T23:08:56.646Z,97411.00
2023-03-06T23:11:24.724Z,97403.19
2023-03-06T23:13:52.725Z,97400.97
2023-03-06T23:16:19.475Z,97403.16
2023-03-06T23:18:48.254Z,97403.50
2023-03-06T23:21:17.267Z,97393.84
2023-03-06T23:23:48.940Z,97395.34
2023-03-06T23:26:22.268Z,97394.22
2023-03-06T23:28:49.211Z,97391.56
2023-03-06T23:31:20.840Z,97392.09
2023-03-06T23:33:47.913Z,97391.34
2023-03-06T23:36:17.481Z,97388.34
2023-03-06T23:38:44.453Z,97384.81
2023-03-06T23:41:16.436Z,97390.81
2023-03-06T23:43:43.614Z,97373.69
2023-03-06T23:46:10.481Z,97377.34
2023-03-06T23:48:40.573Z,97372.88
2023-03-06T23:51:10.110Z,97376.41
2023-03-06T23:53:36.783Z,97372.50
2023-03-06T23:56:06.189Z,97369.13
2023-03-06T23:58:33.115Z,97362.13
